首页
METAR-TAF:

METAR-TAF

机场 :

Lewistown Municipal Airport

刘易斯敦, 蒙大拿州, 美国

纬度: 47-02-57N, 经度: 109-27-59W, 海拔: 1270米

当前天气观测

该预报发布于1小时和10分钟前的20:54 UTC
风速21节,风向西,有时为29节阵风
温度 14°C
湿度 31%
气压 1012 hPa
能見度: 16.1公里
少量云层高于7000英尺
散云层高于9000英尺

METAR: KLWT 262054Z AUTO 26021G29KT 10SM FEW070 SCT090 14/M03 A2988 RMK AO2 PK WND 30030/2023 SLP109 T01441028 51008

时间: 16:04 (22:04 UTC)

预报

该预报发布于4小时和44分钟前的17:20 UTC
预报有效从26日的 18点(UTC)到 27日的 18点(UTC)
风速17节,风向西转西北,有时为26节阵风
能見度: 10公里
散云层高于11000英尺
从 27日的 0300点(UTC)
风速12节,风向西,有时为20节阵风
能見度: 10公里
少量云层高于25000英尺
从 27日的 0900点(UTC)
风速7节,风向西转西南
能見度: 10公里
少量云层高于25000英尺

TAF: KLWT 261720Z 2618/2718 29017G26KT P6SM SCT110 FM270300 28012G20KT P6SM FEW250 FM270900 25007KT P6SM FEW250

超过4000个机场的气象观测和天气预报(METAR&TAF报告)。

可查询的气象台以黄色和红色小点在地图上表示。

将鼠标移到小点上方,可查看气象台名称。

然后点击查看天气观测和预报。

如需切换地图:点击带黑十字的绿色按钮放大地图;点击带横线的绿色按钮缩小地图;或者点击绿色箭头查看邻近地区的地图。


METAR-TAF: